Time;durP1;ratioP1;P1;durP2;ratioP2;P2;SDS_P1;SDS_P2;PMS_P1;PMS_P2;Temp;Humidity;BMP_temperature;BMP_pressure;BME280_temperature;BME280_humidity;BME280_pressure;Samples;Min_cycle;Max_cycle;Signal;HPM_P1;HPM_P2
2022/09/11 00:00:33;;;;;;;33.28;21.92;;;18.30;99.90;;;;;;5025076;28;20033;-76
2022/09/11 00:02:59;;;;;;;31.17;20.90;;;18.30;99.90;;;;;;5032603;28;20033;-76
2022/09/11 00:05:24;;;;;;;33.65;20.02;;;18.30;99.90;;;;;;5030335;28;20026;-76
2022/09/11 00:07:50;;;;;;;31.67;21.63;;;18.30;99.90;;;;;;5029792;28;20355;-76
2022/09/11 00:10:17;;;;;;;31.27;20.40;;;18.20;99.90;;;;;;5031095;28;20021;-75
2022/09/11 00:12:43;;;;;;;35.88;23.02;;;18.30;99.90;;;;;;5025151;28;20026;-76
2022/09/11 00:15:09;;;;;;;28.83;18.92;;;18.30;99.90;;;;;;5024332;28;20494;-75
2022/09/11 00:17:36;;;;;;;31.00;21.42;;;18.30;99.90;;;;;;5031922;28;20397;-76
2022/09/11 00:20:03;;;;;;;32.10;21.25;;;18.30;99.90;;;;;;5046945;28;20471;-75
2022/09/11 00:22:29;;;;;;;33.67;20.88;;;18.30;99.90;;;;;;5030218;28;20120;-75
2022/09/11 00:24:55;;;;;;;31.85;21.10;;;18.30;99.90;;;;;;5045627;28;20052;-76
2022/09/11 00:27:21;;;;;;;32.72;21.35;;;18.30;99.90;;;;;;5027502;28;20084;-75
2022/09/11 00:29:48;;;;;;;30.60;21.05;;;18.30;99.90;;;;;;5017314;28;20471;-76
2022/09/11 00:32:14;;;;;;;30.33;19.42;;;18.30;99.90;;;;;;5043792;28;20391;-76
2022/09/11 00:34:40;;;;;;;30.42;20.02;;;18.20;99.90;;;;;;5041533;28;20079;-76
2022/09/11 00:37:06;;;;;;;31.75;20.00;;;18.30;99.90;;;;;;5022501;28;20021;-76
2022/09/11 00:39:32;;;;;;;34.83;21.73;;;18.30;99.90;;;;;;5025457;28;20037;-76
2022/09/11 00:41:58;;;;;;;30.35;20.15;;;18.30;99.90;;;;;;5029701;28;20029;-76
2022/09/11 00:44:23;;;;;;;35.33;21.52;;;18.30;99.90;;;;;;5030839;28;20482;-76
2022/09/11 00:46:58;;;;;;;33.78;19.25;;;18.30;99.90;;;;;;5029843;28;20148;-76
2022/09/11 00:49:30;;;;;;;30.52;20.15;;;18.20;99.90;;;;;;5027260;28;20032;-75
2022/09/11 00:52:07;;;;;;;30.25;18.55;;;18.30;99.90;;;;;;5045817;28;20036;-76
2022/09/11 00:54:42;;;;;;;32.80;19.50;;;18.30;99.90;;;;;;5026151;28;20561;-76
2022/09/11 00:57:09;;;;;;;31.45;21.13;;;18.30;99.90;;;;;;5028411;28;20124;-76
2022/09/11 00:59:38;;;;;;;30.33;19.95;;;18.30;99.90;;;;;;5024883;28;20025;-75
2022/09/11 01:02:04;;;;;;;30.42;20.65;;;18.30;99.90;;;;;;5030087;28;20026;-76
2022/09/11 01:04:32;;;;;;;32.17;20.58;;;18.20;99.90;;;;;;5025420;28;20043;-76
2022/09/11 01:06:59;;;;;;;30.48;19.65;;;18.20;99.90;;;;;;5029261;28;20087;-75
2022/09/11 01:09:29;;;;;;;31.73;20.33;;;18.20;99.90;;;;;;5022243;28;20032;-76
2022/09/11 01:12:23;;;;;;;32.42;20.38;;;18.30;99.90;;;;;;5017972;28;20442;-75
2022/09/11 01:15:02;;;;;;;31.33;20.05;;;18.30;99.90;;;;;;5026715;28;20018;-75
2022/09/11 01:17:48;;;;;;;32.80;20.35;;;18.20;99.90;;;;;;5027415;28;20045;-75
2022/09/11 01:20:42;;;;;;;32.30;18.95;;;18.30;99.90;;;;;;5028200;28;20029;-75
2022/09/11 01:23:19;;;;;;;27.90;19.23;;;18.20;99.90;;;;;;5020756;28;20064;-75
2022/09/11 01:26:25;;;;;;;29.40;18.55;;;18.20;99.90;;;;;;5028085;28;20025;-75
2022/09/11 01:28:58;;;;;;;27.40;18.45;;;18.20;99.90;;;;;;5025253;28;20017;-75
2022/09/11 01:31:29;;;;;;;;;;;18.20;99.90;;;;;;5027559;28;20552;-75
2022/09/11 01:34:14;;;;;;;30.33;18.33;;;18.20;99.90;;;;;;5024252;28;19909;-75
2022/09/11 01:36:53;;;;;;;27.63;17.17;;;18.20;99.90;;;;;;5029092;28;20490;-76
2022/09/11 01:39:24;;;;;;;30.02;18.23;;;18.20;99.90;;;;;;5019885;28;20467;-75
2022/09/11 01:41:59;;;;;;;28.75;19.45;;;18.20;99.90;;;;;;5027311;28;20112;-75
2022/09/11 01:44:35;;;;;;;28.20;18.38;;;18.20;99.90;;;;;;5025871;28;20124;-76
2022/09/11 01:47:03;;;;;;;29.67;17.30;;;18.20;99.90;;;;;;5020704;28;20066;-75
2022/09/11 01:49:37;;;;;;;29.98;18.50;;;18.20;99.90;;;;;;5018033;28;20072;-75
2022/09/11 01:52:21;;;;;;;28.02;17.85;;;18.20;99.90;;;;;;5019259;28;20132;-75
2022/09/11 01:54:53;;;;;;;31.23;19.55;;;18.20;99.90;;;;;;5023168;28;20475;-76
2022/09/11 01:57:38;;;;;;;28.95;19.42;;;18.20;99.90;;;;;;5021198;28;20124;-75
2022/09/11 02:00:09;;;;;;;29.83;19.38;;;18.20;99.90;;;;;;5019059;28;20026;-75
2022/09/11 02:02:39;;;;;;;29.13;18.23;;;18.20;99.90;;;;;;5042143;28;20051;-76
2022/09/11 02:05:24;;;;;;;28.00;18.85;;;18.20;99.90;;;;;;5027219;28;20126;-76
2022/09/11 02:08:05;;;;;;;29.42;18.75;;;18.20;99.90;;;;;;5015993;28;20028;-75
2022/09/11 02:10:39;;;;;;;29.20;18.15;;;18.20;99.90;;;;;;5029067;28;20363;-75
2022/09/11 02:13:18;;;;;;;;;;;18.20;99.90;;;;;;5022235;28;20026;-75
2022/09/11 02:15:54;;;;;;;30.42;18.80;;;18.20;99.90;;;;;;5030504;28;19920;-75
2022/09/11 02:18:26;;;;;;;28.75;18.48;;;18.20;99.90;;;;;;5020518;28;20088;-75
2022/09/11 02:20:52;;;;;;;32.22;21.13;;;18.20;99.90;;;;;;5036169;28;20116;-75
2022/09/11 02:23:19;;;;;;;29.83;19.42;;;18.20;99.90;;;;;;5013988;28;20503;-76
2022/09/11 02:25:46;;;;;;;32.92;19.83;;;18.20;99.90;;;;;;5028000;28;20027;-75
2022/09/11 02:28:12;;;;;;;33.95;21.17;;;18.20;99.90;;;;;;5014314;28;20076;-76
2022/09/11 02:30:40;;;;;;;32.83;20.05;;;18.20;99.90;;;;;;5021148;28;20033;-76
2022/09/11 02:33:34;;;;;;;34.55;20.88;;;18.20;99.90;;;;;;5016271;28;20032;-76
2022/09/11 02:36:31;;;;;;;30.10;19.30;;;18.20;99.90;;;;;;5019464;28;20029;-75
2022/09/11 02:39:44;;;;;;;35.85;22.17;;;18.20;99.90;;;;;;5018375;28;20026;-76
2022/09/11 02:42:26;;;;;;;34.45;19.95;;;18.20;99.90;;;;;;5028649;28;20083;-75
2022/09/11 02:45:34;;;;;;;37.15;21.00;;;18.20;99.90;;;;;;5015129;28;20049;-75
2022/09/11 02:48:10;;;;;;;36.65;20.45;;;18.20;99.90;;;;;;5020749;28;20038;-75
2022/09/11 02:50:51;;;;;;;34.42;20.98;;;18.20;99.90;;;;;;5020472;28;20106;-75
2022/09/11 02:53:55;;;;;;;36.10;20.70;;;18.20;99.90;;;;;;5025469;28;20060;-76
2022/09/11 02:56:45;;;;;;;34.25;20.67;;;18.20;99.90;;;;;;5017255;28;20131;-76
2022/09/11 02:59:25;;;;;;;37.03;21.48;;;18.20;99.90;;;;;;5018934;28;20045;-76
2022/09/11 03:02:00;;;;;;;34.67;20.73;;;18.20;99.90;;;;;;5017930;28;20033;-75
2022/09/11 03:04:28;;;;;;;34.92;21.10;;;18.20;99.90;;;;;;5024029;28;20026;-75
2022/09/11 03:06:55;;;;;;;40.30;22.23;;;18.20;99.90;;;;;;5041450;28;20068;-76
2022/09/11 03:09:21;;;;;;;36.08;20.35;;;18.20;99.90;;;;;;5024620;28;20494;-75
2022/09/11 03:11:47;;;;;;;38.92;22.02;;;18.10;99.90;;;;;;5028751;28;20041;-75
2022/09/11 03:14:13;;;;;;;41.00;23.10;;;18.10;99.90;;;;;;5028112;28;20479;-75
2022/09/11 03:16:40;;;;;;;38.25;22.70;;;18.10;99.90;;;;;;5028878;28;20128;-75
2022/09/11 03:19:06;;;;;;;39.90;22.63;;;18.10;99.90;;;;;;5022703;28;20029;-75
2022/09/11 03:21:33;;;;;;;41.15;22.73;;;18.10;99.90;;;;;;5015265;28;20482;-75
2022/09/11 03:23:59;;;;;;;43.83;23.83;;;18.10;99.90;;;;;;5027526;28;20160;-75
2022/09/11 03:26:26;;;;;;;42.00;23.33;;;18.20;99.90;;;;;;5018809;28;20120;-75
2022/09/11 03:28:52;;;;;;;34.75;20.35;;;18.10;99.90;;;;;;5051637;22;20026;-86
2022/09/11 03:31:18;;;;;;;39.80;20.88;;;18.10;99.90;;;;;;5031785;28;20029;-86
2022/09/11 03:33:43;;;;;;;41.17;23.35;;;18.20;99.90;;;;;;5033819;28;20492;-86
2022/09/11 03:36:09;;;;;;;40.35;22.30;;;18.20;99.90;;;;;;5048108;28;20443;-86
2022/09/11 03:38:36;;;;;;;40.03;22.77;;;18.20;99.90;;;;;;5051980;28;20034;-83
2022/09/11 03:41:02;;;;;;;49.08;23.73;;;18.10;99.90;;;;;;5028046;28;20025;-83
2022/09/11 03:43:28;;;;;;;39.13;21.92;;;18.20;99.90;;;;;;5026992;28;20018;-83
2022/09/11 03:45:54;;;;;;;43.00;23.38;;;18.20;99.90;;;;;;5030797;28;20079;-83
2022/09/11 03:48:20;;;;;;;40.22;22.42;;;18.10;99.90;;;;;;5038943;28;20034;-83
2022/09/11 03:50:46;;;;;;;45.53;24.77;;;18.10;99.90;;;;;;5021664;28;20393;-85
2022/09/11 03:53:12;;;;;;;45.28;24.58;;;18.10;99.90;;;;;;5034144;28;21247;-83
2022/09/11 03:55:38;;;;;;;41.97;22.88;;;18.10;99.90;;;;;;5030378;28;20517;-83
2022/09/11 03:58:06;;;;;;;40.70;24.13;;;18.10;99.90;;;;;;5035696;28;20109;-83
2022/09/11 04:00:32;;;;;;;39.97;21.35;;;18.20;99.90;;;;;;5022240;28;20424;-83
2022/09/11 04:02:59;;;;;;;41.97;23.13;;;18.10;99.90;;;;;;5028668;28;20166;-83
2022/09/11 04:05:25;;;;;;;42.30;21.45;;;18.10;99.90;;;;;;5023625;28;20055;-83
2022/09/11 04:07:54;;;;;;;46.35;23.15;;;18.10;99.90;;;;;;5036018;28;20075;-83
2022/09/11 04:10:20;;;;;;;44.28;23.65;;;18.10;99.90;;;;;;5021932;28;20450;-83
2022/09/11 04:12:46;;;;;;;44.20;22.77;;;18.10;99.90;;;;;;5032102;28;20470;-83
2022/09/11 04:15:12;;;;;;;40.75;23.92;;;18.10;99.90;;;;;;5014528;28;20029;-84
2022/09/11 04:17:38;;;;;;;44.20;23.83;;;18.10;99.90;;;;;;5023972;28;20033;-83
2022/09/11 04:20:04;;;;;;;43.65;23.77;;;18.10;99.90;;;;;;5029364;28;20490;-83
2022/09/11 04:22:30;;;;;;;38.63;21.42;;;18.10;99.90;;;;;;5029175;28;20052;-83
2022/09/11 04:24:56;;;;;;;45.00;24.48;;;18.10;99.90;;;;;;5026326;28;20433;-83
2022/09/11 04:27:22;;;;;;;42.30;24.05;;;18.10;99.90;;;;;;5029613;28;20063;-83
2022/09/11 04:29:48;;;;;;;42.85;22.75;;;18.10;99.90;;;;;;5018914;28;20026;-83
2022/09/11 04:32:14;;;;;;;48.30;23.77;;;18.10;99.90;;;;;;5013775;28;20037;-83
2022/09/11 04:34:40;;;;;;;46.65;24.45;;;18.10;99.90;;;;;;5028022;28;20025;-83
2022/09/11 04:37:06;;;;;;;44.22;24.00;;;18.10;99.90;;;;;;5027735;28;20109;-83
2022/09/11 04:39:33;;;;;;;47.65;23.17;;;18.10;99.90;;;;;;5041024;28;20053;-83
2022/09/11 04:42:01;;;;;;;38.90;22.08;;;18.10;99.90;;;;;;5030987;28;20060;-84
2022/09/11 04:44:28;;;;;;;46.00;24.27;;;18.10;99.90;;;;;;5018686;28;20057;-83
2022/09/11 04:46:55;;;;;;;44.78;23.73;;;18.10;99.90;;;;;;5040414;28;20033;-84
2022/09/11 04:49:21;;;;;;;49.92;24.17;;;18.10;99.90;;;;;;5045483;28;20438;-83
2022/09/11 04:51:47;;;;;;;43.45;22.65;;;18.10;99.90;;;;;;5029741;28;20072;-83
2022/09/11 04:54:19;;;;;;;42.75;22.88;;;18.10;99.90;;;;;;5021569;28;20065;-83
2022/09/11 04:56:45;;;;;;;43.92;23.27;;;18.10;99.90;;;;;;5031930;28;20075;-83
2022/09/11 04:59:14;;;;;;;47.42;23.88;;;18.10;99.90;;;;;;5022677;28;20045;-83
2022/09/11 05:01:42;;;;;;;44.53;23.27;;;18.10;99.90;;;;;;5023271;28;20482;-83
2022/09/11 05:04:11;;;;;;;41.58;22.58;;;18.10;99.90;;;;;;5024263;28;20120;-84
2022/09/11 05:06:37;;;;;;;49.95;24.75;;;18.10;99.90;;;;;;5017813;28;20424;-83
2022/09/11 05:09:05;;;;;;;43.10;23.48;;;18.10;99.90;;;;;;5029245;28;20028;-83
2022/09/11 05:11:31;;;;;;;43.58;23.95;;;18.10;99.90;;;;;;5037620;28;21578;-83
2022/09/11 05:13:57;;;;;;;52.13;23.80;;;18.10;99.90;;;;;;5024120;28;20025;-83
2022/09/11 05:16:25;;;;;;;42.13;22.95;;;18.10;99.90;;;;;;5028821;28;20029;-83
2022/09/11 05:18:52;;;;;;;43.83;22.00;;;18.10;99.90;;;;;;5027812;28;20032;-83
2022/09/11 05:21:19;;;;;;;42.20;22.98;;;18.10;99.90;;;;;;5032173;28;20112;-84
2022/09/11 05:23:51;;;;;;;44.63;23.77;;;18.10;99.90;;;;;;5027140;28;20051;-82
2022/09/11 05:26:19;;;;;;;50.08;22.83;;;18.10;99.90;;;;;;5017760;28;20033;-84
2022/09/11 05:28:45;;;;;;;46.78;23.02;;;18.10;99.90;;;;;;5032867;28;20527;-84
2022/09/11 05:31:14;;;;;;;44.67;23.08;;;18.10;99.90;;;;;;5030507;28;20485;-84
2022/09/11 05:33:40;;;;;;;49.33;24.42;;;18.10;99.90;;;;;;5043215;28;20436;-83
2022/09/11 05:36:06;;;;;;;46.47;22.60;;;18.10;99.90;;;;;;5031706;28;20378;-83
2022/09/11 05:38:33;;;;;;;47.30;24.75;;;18.10;99.90;;;;;;5021561;28;20030;-83
2022/09/11 05:40:59;;;;;;;51.75;23.45;;;18.10;99.90;;;;;;5025475;28;20048;-84
2022/09/11 05:43:25;;;;;;;54.08;24.58;;;18.10;99.90;;;;;;5030889;28;20029;-83
2022/09/11 05:45:56;;;;;;;45.83;24.63;;;18.10;99.90;;;;;;5030136;28;20095;-83
2022/09/11 05:48:22;;;;;;;43.42;23.45;;;18.10;99.90;;;;;;5023835;28;20044;-83
2022/09/11 05:50:58;;;;;;;45.40;24.73;;;18.10;99.90;;;;;;5024488;28;20025;-83
2022/09/11 05:53:25;;;;;;;50.55;24.08;;;18.10;99.90;;;;;;5025518;28;20037;-83
2022/09/11 05:55:51;;;;;;;52.47;24.30;;;18.10;99.90;;;;;;5019902;28;20060;-84
2022/09/11 05:58:17;;;;;;;46.08;23.20;;;18.10;99.90;;;;;;5020043;28;20371;-84
2022/09/11 06:00:47;;;;;;;50.13;23.92;;;18.10;99.90;;;;;;5032017;28;20866;-83
2022/09/11 06:03:13;;;;;;;49.60;23.88;;;18.10;99.90;;;;;;5021818;28;20041;-84
2022/09/11 06:05:39;;;;;;;50.65;25.38;;;18.10;99.90;;;;;;5021900;28;20034;-83
2022/09/11 06:08:07;;;;;;;52.40;24.48;;;18.10;99.90;;;;;;5031012;28;20496;-83
2022/09/11 06:10:34;;;;;;;49.85;22.48;;;18.10;99.90;;;;;;5024567;28;20207;-83
2022/09/11 06:12:59;;;;;;;50.03;23.05;;;18.10;99.90;;;;;;5018855;28;20025;-83
2022/09/11 06:15:25;;;;;;;44.17;22.88;;;18.00;99.90;;;;;;5031286;28;20030;-84
2022/09/11 06:17:52;;;;;;;41.88;21.45;;;18.10;99.90;;;;;;5030329;28;20022;-84
2022/09/11 06:20:18;;;;;;;47.10;23.13;;;18.10;99.90;;;;;;5019535;28;20026;-84
2022/09/11 06:22:43;;;;;;;39.08;20.77;;;18.10;99.90;;;;;;5033476;28;20044;-84
2022/09/11 06:25:09;;;;;;;47.70;23.45;;;18.10;99.90;;;;;;5037154;28;20049;-83
2022/09/11 06:27:34;;;;;;;46.90;24.02;;;18.10;99.90;;;;;;5033271;28;20815;-83
2022/09/11 06:30:00;;;;;;;42.58;21.80;;;18.10;99.90;;;;;;5020999;28;20111;-83
2022/09/11 06:32:26;;;;;;;43.25;21.38;;;18.10;99.90;;;;;;5011550;28;20029;-83
2022/09/11 06:34:52;;;;;;;42.08;20.83;;;18.10;99.90;;;;;;5028660;28;20041;-83
2022/09/11 06:37:18;;;;;;;41.95;20.88;;;18.10;99.90;;;;;;5028173;28;20025;-83
2022/09/11 06:39:43;;;;;;;46.78;24.20;;;18.10;99.90;;;;;;5028138;28;20028;-83
2022/09/11 06:42:09;;;;;;;47.35;23.17;;;18.10;99.90;;;;;;5030020;28;20485;-82
2022/09/11 06:44:35;;;;;;;44.45;22.23;;;18.10;99.90;;;;;;5032206;28;20033;-83
2022/09/11 06:47:01;;;;;;;47.72;23.33;;;18.10;99.90;;;;;;5033607;28;20593;-83
2022/09/11 06:49:26;;;;;;;45.05;22.58;;;18.10;99.90;;;;;;5028275;28;20036;-82
2022/09/11 06:51:53;;;;;;;43.88;21.73;;;18.10;99.90;;;;;;5026465;28;20025;-83
2022/09/11 06:54:18;;;;;;;40.85;20.98;;;18.10;99.90;;;;;;5028820;28;20029;-82
2022/09/11 06:56:44;;;;;;;42.30;21.95;;;18.10;99.90;;;;;;5026624;28;20060;-83
2022/09/11 06:59:10;;;;;;;43.90;22.13;;;18.10;99.90;;;;;;5027362;28;20021;-83
2022/09/11 07:01:38;;;;;;;50.50;22.05;;;18.10;99.90;;;;;;5038361;28;20064;-83
2022/09/11 07:04:04;;;;;;;48.33;23.38;;;18.10;99.90;;;;;;5012945;28;20042;-83
2022/09/11 07:06:30;;;;;;;44.40;22.15;;;18.10;99.90;;;;;;5034936;28;20033;-82
2022/09/11 07:09:01;;;;;;;44.22;21.80;;;18.10;99.90;;;;;;5031342;28;20429;-83
2022/09/11 07:11:33;;;;;;;44.35;23.20;;;18.10;99.90;;;;;;5035094;28;20061;-83
2022/09/11 07:14:00;;;;;;;44.60;23.08;;;18.10;99.90;;;;;;5020158;28;20022;-83
2022/09/11 07:16:26;;;;;;;47.42;24.23;;;18.10;99.90;;;;;;5046543;28;20071;-82
2022/09/11 07:18:51;;;;;;;45.30;24.05;;;18.10;99.90;;;;;;5038568;28;20029;-83
2022/09/11 07:21:22;;;;;;;43.35;22.08;;;18.10;99.90;;;;;;5028513;28;20052;-82
2022/09/11 07:23:53;;;;;;;49.28;23.42;;;18.10;99.90;;;;;;5025455;28;20120;-82
2022/09/11 07:26:19;;;;;;;50.00;23.15;;;18.10;99.90;;;;;;5022281;28;20585;-83
2022/09/11 07:28:47;;;;;;;42.40;21.70;;;18.10;99.90;;;;;;5033909;28;20771;-83
2022/09/11 07:31:16;;;;;;;47.75;22.30;;;18.10;99.90;;;;;;5033615;28;20036;-86
2022/09/11 07:33:52;;;;;;;47.85;23.67;;;18.10;99.90;;;;;;5022775;28;20079;-85
2022/09/11 07:36:21;;;;;;;47.30;22.05;;;18.10;99.90;;;;;;5024259;28;20404;-85
2022/09/11 07:38:48;;;;;;;50.78;23.30;;;18.00;99.90;;;;;;5027886;28;20022;-86
2022/09/11 07:41:16;;;;;;;47.88;23.58;;;18.00;99.90;;;;;;5026482;28;20064;-86
2022/09/11 07:43:44;;;;;;;47.20;22.10;;;18.10;99.90;;;;;;5031246;28;20044;-85
2022/09/11 07:46:10;;;;;;;48.78;23.30;;;18.10;99.90;;;;;;5027732;28;20094;-85
2022/09/11 07:48:37;;;;;;;46.80;22.88;;;18.10;99.90;;;;;;5026445;28;20026;-86
2022/09/11 07:51:05;;;;;;;52.15;23.80;;;18.10;99.90;;;;;;5026670;28;20375;-86
2022/09/11 07:53:35;;;;;;;49.42;23.17;;;18.10;99.90;;;;;;5019215;28;20118;-86
2022/09/11 07:56:06;;;;;;;50.03;24.13;;;18.10;99.90;;;;;;5033703;28;20052;-85
2022/09/11 07:58:33;;;;;;;52.10;24.40;;;18.00;99.90;;;;;;5031054;28;20393;-85
2022/09/11 08:01:01;;;;;;;51.38;24.08;;;18.10;99.90;;;;;;5033174;28;20029;-85
2022/09/11 08:03:27;;;;;;;58.80;24.27;;;18.10;99.90;;;;;;5032993;28;20521;-86
2022/09/11 08:05:57;;;;;;;54.05;23.60;;;18.10;99.90;;;;;;5039051;28;20055;-83
2022/09/11 08:08:24;;;;;;;53.70;24.02;;;18.10;99.90;;;;;;5031551;28;20036;-83
2022/09/11 08:10:49;;;;;;;52.97;24.27;;;18.00;99.90;;;;;;5033460;28;20021;-83
2022/09/11 08:13:15;;;;;;;55.50;23.98;;;18.10;99.90;;;;;;5026506;28;20039;-83
2022/09/11 08:15:50;;;;;;;56.03;26.55;;;18.00;99.90;;;;;;5030421;28;20117;-83
2022/09/11 08:18:16;;;;;;;59.45;27.38;;;18.10;99.90;;;;;;5029132;28;20061;-83
2022/09/11 08:20:41;;;;;;;50.75;23.75;;;18.10;99.90;;;;;;5018680;28;20052;-83
2022/09/11 08:23:08;;;;;;;58.65;24.63;;;18.10;99.90;;;;;;5026804;28;20049;-83
2022/09/11 08:25:36;;;;;;;59.17;25.92;;;18.00;99.90;;;;;;5030335;28;20029;-83
2022/09/11 08:28:02;;;;;;;60.15;25.75;;;18.10;99.90;;;;;;5023778;28;20120;-83
2022/09/11 08:30:28;;;;;;;63.97;25.88;;;18.00;99.90;;;;;;5021601;28;20052;-82
2022/09/11 08:32:54;;;;;;;60.53;26.20;;;18.00;99.90;;;;;;5036156;28;20018;-83
2022/09/11 08:35:20;;;;;;;63.63;26.20;;;18.10;99.90;;;;;;5017660;28;20046;-82
2022/09/11 08:37:45;;;;;;;62.33;26.83;;;18.00;99.90;;;;;;5030604;28;20026;-83
2022/09/11 08:40:12;;;;;;;60.80;25.48;;;18.00;99.90;;;;;;5029937;28;20052;-83
2022/09/11 08:42:44;;;;;;;59.30;25.65;;;18.10;99.90;;;;;;5028959;28;20025;-83
2022/09/11 08:45:21;;;;;;;56.63;26.05;;;18.00;99.90;;;;;;5026471;28;20041;-83
2022/09/11 08:47:51;;;;;;;64.50;26.40;;;18.00;99.90;;;;;;5032921;28;20030;-84
2022/09/11 08:50:19;;;;;;;62.50;27.20;;;18.00;99.90;;;;;;5032159;28;20028;-83
2022/09/11 08:52:45;;;;;;;58.95;26.05;;;18.00;99.90;;;;;;5019104;28;20066;-83
2022/09/11 08:55:23;;;;;;;61.13;27.20;;;18.00;99.90;;;;;;5032701;28;20026;-83
2022/09/11 08:57:57;;;;;;;67.97;27.95;;;18.00;99.90;;;;;;5026516;28;20025;-83
2022/09/11 09:00:31;;;;;;;62.00;26.02;;;18.00;99.90;;;;;;5026659;28;20029;-83
2022/09/11 09:03:21;;;;;;;60.15;27.75;;;18.00;99.90;;;;;;5015748;28;20029;-83
2022/09/11 09:06:14;;;;;;;59.72;27.85;;;18.00;99.90;;;;;;5026927;28;20041;-83
2022/09/11 09:09:00;;;;;;;61.78;26.00;;;18.00;99.90;;;;;;5022425;28;20029;-83
2022/09/11 09:11:34;;;;;;;66.55;27.15;;;18.00;99.90;;;;;;5011821;28;20055;-83
2022/09/11 09:14:28;;;;;;;60.58;26.20;;;18.00;99.90;;;;;;5021882;28;20041;-83
2022/09/11 09:17:25;;;;;;;57.70;27.58;;;18.00;99.90;;;;;;5012031;28;20041;-83
2022/09/11 09:20:02;;;;;;;59.22;26.95;;;18.00;99.90;;;;;;5017312;28;20045;-83
2022/09/11 09:22:47;;;;;;;54.85;24.63;;;18.00;99.90;;;;;;5027964;28;20686;-83
2022/09/11 09:25:17;;;;;;;59.92;26.73;;;18.10;99.90;;;;;;5010780;28;20082;-83
2022/09/11 09:27:52;;;;;;;62.92;26.38;;;18.00;99.90;;;;;;5030316;28;20056;-83
2022/09/11 09:30:22;;;;;;;63.95;27.17;;;18.00;99.90;;;;;;5019473;28;20033;-83
2022/09/11 09:33:02;;;;;;;58.90;26.17;;;18.00;99.90;;;;;;5036597;28;20169;-83
2022/09/11 09:35:40;;;;;;;57.45;25.42;;;18.00;99.90;;;;;;5027800;28;20071;-83
2022/09/11 09:38:13;;;;;;;63.30;26.70;;;18.00;99.90;;;;;;5016647;28;20018;-84
2022/09/11 09:40:58;;;;;;;58.53;26.98;;;18.10;99.90;;;;;;5021828;28;20551;-83
2022/09/11 09:44:05;;;;;;;54.35;25.33;;;18.10;99.90;;;;;;5024190;28;20063;-83
2022/09/11 09:46:40;;;;;;;57.08;26.38;;;18.10;99.90;;;;;;5014876;28;20049;-83
2022/09/11 09:49:09;;;;;;;57.25;25.02;;;18.10;99.90;;;;;;5012993;28;20033;-83
2022/09/11 09:51:35;;;;;;;58.00;25.25;;;18.10;99.90;;;;;;5020821;28;20064;-83
2022/09/11 09:54:02;;;;;;;53.35;24.05;;;18.10;99.90;;;;;;5019511;28;20032;-83
2022/09/11 09:56:30;;;;;;;62.67;26.75;;;18.10;99.90;;;;;;5020755;28;20490;-83
2022/09/11 09:59:08;;;;;;;61.70;25.25;;;18.10;99.90;;;;;;5012947;28;20053;-83
2022/09/11 10:01:53;;;;;;;56.92;24.95;;;18.10;99.90;;;;;;5011304;28;20022;-83
2022/09/11 10:04:25;;;;;;;61.22;25.70;;;18.10;99.90;;;;;;5031296;28;20029;-83
2022/09/11 10:07:13;;;;;;;56.03;25.85;;;18.10;99.90;;;;;;5032825;28;20029;-82
2022/09/11 10:09:48;;;;;;;56.03;24.50;;;18.10;99.90;;;;;;5020482;28;20084;-83
2022/09/11 10:12:17;;;;;;;55.20;24.58;;;18.10;99.90;;;;;;5041623;28;20426;-83
2022/09/11 10:14:50;;;;;;;57.22;24.48;;;18.10;99.90;;;;;;5021964;28;20049;-83
2022/09/11 10:17:21;;;;;;;54.05;24.13;;;18.10;99.90;;;;;;5018194;28;20057;-83
2022/09/11 10:19:47;;;;;;;61.60;26.27;;;18.10;99.90;;;;;;5027592;28;20398;-83
2022/09/11 10:22:31;;;;;;;56.08;25.05;;;18.10;99.90;;;;;;5023550;28;20040;-83
2022/09/11 10:25:01;;;;;;;;;;;18.10;99.90;;;;;;5019049;28;20103;-83
2022/09/11 10:27:34;;;;;;;56.05;23.80;;;18.10;99.90;;;;;;5025392;28;20292;-83
2022/09/11 10:30:01;;;;;;;49.13;25.40;;;18.10;99.90;;;;;;5018481;28;20021;-83
2022/09/11 10:32:28;;;;;;;57.35;24.80;;;18.10;99.90;;;;;;5036302;28;20107;-84
2022/09/11 10:34:55;;;;;;;59.22;25.02;;;18.10;99.90;;;;;;5029613;28;20055;-86
2022/09/11 10:37:30;;;;;;;51.13;23.42;;;18.10;99.90;;;;;;5029591;28;20393;-86
2022/09/11 10:40:17;;;;;;;56.47;24.20;;;18.10;99.90;;;;;;5012289;28;20022;-86
2022/09/11 10:42:45;;;;;;;58.40;25.23;;;18.20;99.90;;;;;;5009823;28;20253;-87
2022/09/11 10:45:15;;;;;;;57.63;24.25;;;18.10;99.90;;;;;;5013794;28;20025;-86
2022/09/11 10:47:42;;;;;;;60.22;25.73;;;18.10;99.90;;;;;;5009259;28;20033;-87
2022/09/11 10:50:16;;;;;;;59.70;25.73;;;17.90;99.90;;;;;;5008067;28;20026;-87
2022/09/11 10:52:57;;;;;;;54.42;25.30;;;18.00;99.90;;;;;;5065722;23;20044;-85
2022/09/11 10:55:26;;;;;;;54.47;23.55;;;18.10;99.90;;;;;;5044842;28;20424;-85
2022/09/11 10:57:54;;;;;;;55.42;25.50;;;18.10;99.90;;;;;;5048907;28;20227;-85
2022/09/11 11:00:25;;;;;;;52.47;24.17;;;18.10;99.90;;;;;;5041586;28;20775;-85
2022/09/11 11:02:53;;;;;;;57.55;26.13;;;18.20;99.90;;;;;;5049687;28;20025;-85
2022/09/11 11:05:26;;;;;;;48.40;23.83;;;18.20;99.90;;;;;;5047697;28;20051;-86
2022/09/11 11:08:27;;;;;;;47.92;22.33;;;18.20;99.90;;;;;;5049458;28;20029;-85
2022/09/11 11:11:13;;;;;;;45.28;22.42;;;18.00;99.90;;;;;;5035961;28;20112;-85
2022/09/11 11:14:06;;;;;;;52.90;25.10;;;18.10;99.90;;;;;;5050443;28;20532;-85
2022/09/11 11:16:56;;;;;;;47.67;21.80;;;18.20;99.90;;;;;;5039711;28;20038;-86
2022/09/11 11:19:52;;;;;;;46.10;23.48;;;18.20;99.90;;;;;;5038704;28;20029;-86
2022/09/11 11:22:33;;;;;;;41.72;21.63;;;18.20;99.90;;;;;;5040387;28;20030;-86
2022/09/11 11:25:26;;;;;;;44.40;22.40;;;18.20;99.90;;;;;;5037902;28;20021;-85
2022/09/11 11:28:01;;;;;;;43.95;21.52;;;18.30;99.90;;;;;;5010533;28;20037;-84
2022/09/11 11:30:30;;;;;;;45.05;23.17;;;18.30;99.90;;;;;;5048673;28;20490;-84
2022/09/11 11:33:34;;;;;;;44.50;20.20;;;18.20;99.90;;;;;;5055656;28;20064;-84
2022/09/11 11:36:10;;;;;;;40.00;21.15;;;18.20;99.90;;;;;;5042516;28;20581;-86
2022/09/11 11:38:45;;;;;;;43.88;22.08;;;18.20;99.90;;;;;;5045723;28;20040;-85
2022/09/11 11:41:21;;;;;;;45.03;22.40;;;18.20;99.90;;;;;;5044094;28;20109;-85
2022/09/11 11:43:49;;;;;;;36.30;20.27;;;18.20;99.90;;;;;;5042002;28;20083;-85
2022/09/11 11:46:22;;;;;;;39.38;22.27;;;18.20;99.90;;;;;;5040173;28;20466;-85
2022/09/11 11:48:48;;;;;;;;;;;18.10;99.90;;;;;;5039886;28;20110;-86
2022/09/11 11:51:26;;;;;;;43.13;21.70;;;18.10;99.90;;;;;;5047023;28;19951;-85
2022/09/11 11:54:03;;;;;;;37.90;22.42;;;18.20;99.90;;;;;;5044160;28;20036;-85
2022/09/11 11:56:53;;;;;;;43.65;22.77;;;18.20;99.90;;;;;;5049536;28;20094;-85
2022/09/11 11:59:45;;;;;;;42.53;21.40;;;18.20;99.90;;;;;;5049573;28;20033;-85
2022/09/11 12:02:20;;;;;;;41.53;22.30;;;18.30;99.90;;;;;;5042667;28;20045;-85
2022/09/11 12:05:12;;;;;;;36.38;19.88;;;18.30;99.90;;;;;;5046868;28;20013;-85
2022/09/11 12:07:40;;;;;;;36.83;19.77;;;18.30;99.90;;;;;;5049418;28;20029;-85
2022/09/11 12:10:17;;;;;;;41.20;22.38;;;18.30;99.90;;;;;;5040902;28;20041;-85
2022/09/11 12:12:49;;;;;;;33.13;17.83;;;18.30;99.90;;;;;;5049880;28;20017;-86
2022/09/11 12:15:23;;;;;;;36.72;20.67;;;18.30;99.90;;;;;;5049351;28;20082;-86
2022/09/11 12:18:05;;;;;;;34.42;21.55;;;18.30;99.90;;;;;;5045503;28;20025;-85
2022/09/11 12:20:33;;;;;;;38.97;22.40;;;18.40;99.90;;;;;;5045603;28;20033;-86
2022/09/11 12:22:59;;;;;;;46.38;23.02;;;18.40;99.90;;;;;;5045621;28;20545;-85
2022/09/11 12:25:28;;;;;;;40.42;21.67;;;18.40;99.90;;;;;;5050487;28;20108;-86
2022/09/11 12:28:23;;;;;;;38.88;22.38;;;18.50;99.90;;;;;;5030671;28;20025;-86
2022/09/11 12:31:10;;;;;;;36.97;21.88;;;18.50;99.90;;;;;;5045845;28;20022;-85
2022/09/11 12:33:46;;;;;;;41.05;20.40;;;18.60;99.90;;;;;;5043477;28;20064;-85
2022/09/11 12:36:46;;;;;;;32.25;20.30;;;18.50;99.90;;;;;;5046092;28;20029;-86
2022/09/11 12:39:31;;;;;;;37.60;21.75;;;18.50;99.90;;;;;;5050468;28;20025;-86
2022/09/11 12:42:24;;;;;;;31.45;18.17;;;18.60;99.90;;;;;;5054424;28;20028;-86
2022/09/11 12:44:50;;;;;;;34.15;18.70;;;18.50;99.90;;;;;;5040309;28;20033;-86
2022/09/11 12:47:23;;;;;;;38.00;21.13;;;18.50;99.90;;;;;;5046957;28;20055;-85
2022/09/11 12:49:58;;;;;;;32.25;18.95;;;18.50;99.90;;;;;;5051461;28;20029;-86
2022/09/11 12:52:30;;;;;;;32.35;18.10;;;18.50;99.90;;;;;;5051338;28;20442;-85